sensor_id;sensor_type;location;lat;lon;timestamp;temperature;humidity
2767;DHT22;1391;46.742;11.636;2023-02-28T00:00:19;3.20;25.00
2767;DHT22;1391;46.742;11.636;2023-02-28T00:02:47;3.20;25.10
2767;DHT22;1391;46.742;11.636;2023-02-28T00:05:18;3.20;26.30
2767;DHT22;1391;46.742;11.636;2023-02-28T00:07:47;3.20;26.30
2767;DHT22;1391;46.742;11.636;2023-02-28T00:10:18;3.20;26.10
2767;DHT22;1391;46.742;11.636;2023-02-28T00:12:46;3.20;26.40
2767;DHT22;1391;46.742;11.636;2023-02-28T00:15:13;3.20;26.20
2767;DHT22;1391;46.742;11.636;2023-02-28T00:17:41;3.60;25.90
2767;DHT22;1391;46.742;11.636;2023-02-28T00:20:11;3.10;26.00
2767;DHT22;1391;46.742;11.636;2023-02-28T00:22:41;3.40;26.10
2767;DHT22;1391;46.742;11.636;2023-02-28T00:25:12;3.10;26.20
2767;DHT22;1391;46.742;11.636;2023-02-28T00:27:42;3.20;25.90
2767;DHT22;1391;46.742;11.636;2023-02-28T00:30:12;3.00;26.60
2767;DHT22;1391;46.742;11.636;2023-02-28T00:32:40;3.40;26.70
2767;DHT22;1391;46.742;11.636;2023-02-28T00:35:09;3.20;27.80
2767;DHT22;1391;46.742;11.636;2023-02-28T00:37:37;3.10;27.00
2767;DHT22;1391;46.742;11.636;2023-02-28T00:40:05;2.90;26.80
2767;DHT22;1391;46.742;11.636;2023-02-28T00:42:35;2.80;26.40
2767;DHT22;1391;46.742;11.636;2023-02-28T00:45:05;2.90;26.50
2767;DHT22;1391;46.742;11.636;2023-02-28T00:47:33;3.10;26.20
2767;DHT22;1391;46.742;11.636;2023-02-28T00:50:01;3.20;27.60
2767;DHT22;1391;46.742;11.636;2023-02-28T00:52:28;2.90;27.20
2767;DHT22;1391;46.742;11.636;2023-02-28T00:54:55;3.30;27.40
2767;DHT22;1391;46.742;11.636;2023-02-28T00:57:23;2.80;27.20
2767;DHT22;1391;46.742;11.636;2023-02-28T00:59:50;2.90;27.50
2767;DHT22;1391;46.742;11.636;2023-02-28T01:02:22;3.00;27.00
2767;DHT22;1391;46.742;11.636;2023-02-28T01:04:50;2.90;26.50
2767;DHT22;1391;46.742;11.636;2023-02-28T01:07:17;3.10;26.90
2767;DHT22;1391;46.742;11.636;2023-02-28T01:09:44;2.90;26.80
2767;DHT22;1391;46.742;11.636;2023-02-28T01:12:12;3.20;26.30
2767;DHT22;1391;46.742;11.636;2023-02-28T01:14:39;3.10;28.10
2767;DHT22;1391;46.742;11.636;2023-02-28T01:17:06;2.80;27.60
2767;DHT22;1391;46.742;11.636;2023-02-28T01:19:35;3.10;27.90
2767;DHT22;1391;46.742;11.636;2023-02-28T01:22:03;3.00;28.00
2767;DHT22;1391;46.742;11.636;2023-02-28T01:24:31;2.80;28.30
2767;DHT22;1391;46.742;11.636;2023-02-28T01:26:58;2.80;26.70
2767;DHT22;1391;46.742;11.636;2023-02-28T01:29:25;3.10;27.50
2767;DHT22;1391;46.742;11.636;2023-02-28T01:31:52;2.80;27.70
2767;DHT22;1391;46.742;11.636;2023-02-28T01:34:20;3.00;28.10
2767;DHT22;1391;46.742;11.636;2023-02-28T01:36:56;2.70;27.90
2767;DHT22;1391;46.742;11.636;2023-02-28T01:39:24;2.80;28.10
2767;DHT22;1391;46.742;11.636;2023-02-28T01:41:51;2.70;28.90
2767;DHT22;1391;46.742;11.636;2023-02-28T01:44:55;2.70;30.50
2767;DHT22;1391;46.742;11.636;2023-02-28T01:47:30;2.50;27.90
2767;DHT22;1391;46.742;11.636;2023-02-28T01:50:01;2.60;27.40
2767;DHT22;1391;46.742;11.636;2023-02-28T01:52:32;3.00;29.50
2767;DHT22;1391;46.742;11.636;2023-02-28T01:55:02;2.50;28.50
2767;DHT22;1391;46.742;11.636;2023-02-28T01:57:33;2.50;28.90
2767;DHT22;1391;46.742;11.636;2023-02-28T02:00:07;2.80;28.70
2767;DHT22;1391;46.742;11.636;2023-02-28T02:02:36;2.50;28.40
2767;DHT22;1391;46.742;11.636;2023-02-28T02:05:06;2.90;27.50
2767;DHT22;1391;46.742;11.636;2023-02-28T02:07:40;2.90;27.60
2767;DHT22;1391;46.742;11.636;2023-02-28T02:10:13;2.80;29.30
2767;DHT22;1391;46.742;11.636;2023-02-28T02:13:14;2.40;28.50
2767;DHT22;1391;46.742;11.636;2023-02-28T02:15:56;2.70;27.80
2767;DHT22;1391;46.742;11.636;2023-02-28T02:18:31;2.50;28.00
2767;DHT22;1391;46.742;11.636;2023-02-28T02:21:29;2.40;28.10
2767;DHT22;1391;46.742;11.636;2023-02-28T02:27:44;2.50;28.10
2767;DHT22;1391;46.742;11.636;2023-02-28T02:37:00;2.60;28.10
2767;DHT22;1391;46.742;11.636;2023-02-28T02:39:44;2.30;28.50
2767;DHT22;1391;46.742;11.636;2023-02-28T02:42:20;2.50;27.90
2767;DHT22;1391;46.742;11.636;2023-02-28T02:44:56;2.30;29.70
2767;DHT22;1391;46.742;11.636;2023-02-28T02:47:29;2.40;29.40
2767;DHT22;1391;46.742;11.636;2023-02-28T02:50:02;2.70;29.10
2767;DHT22;1391;46.742;11.636;2023-02-28T02:52:37;2.50;29.30
2767;DHT22;1391;46.742;11.636;2023-02-28T02:55:08;2.00;30.10
2767;DHT22;1391;46.742;11.636;2023-02-28T02:57:42;2.20;29.80
2767;DHT22;1391;46.742;11.636;2023-02-28T03:00:13;2.50;29.20
2767;DHT22;1391;46.742;11.636;2023-02-28T03:02:43;2.40;29.90
2767;DHT22;1391;46.742;11.636;2023-02-28T03:05:19;2.30;30.20
2767;DHT22;1391;46.742;11.636;2023-02-28T03:07:49;2.10;30.70
2767;DHT22;1391;46.742;11.636;2023-02-28T03:10:29;2.10;29.70
2767;DHT22;1391;46.742;11.636;2023-02-28T03:13:17;2.40;29.20
2767;DHT22;1391;46.742;11.636;2023-02-28T03:16:01;2.40;30.00
2767;DHT22;1391;46.742;11.636;2023-02-28T03:18:46;2.30;30.00
2767;DHT22;1391;46.742;11.636;2023-02-28T03:21:25;2.20;29.50
2767;DHT22;1391;46.742;11.636;2023-02-28T03:24:02;2.00;30.30
2767;DHT22;1391;46.742;11.636;2023-02-28T03:26:36;2.20;29.60
2767;DHT22;1391;46.742;11.636;2023-02-28T03:29:13;2.10;29.60
2767;DHT22;1391;46.742;11.636;2023-02-28T03:31:52;2.10;29.90
2767;DHT22;1391;46.742;11.636;2023-02-28T03:34:24;2.40;30.00
2767;DHT22;1391;46.742;11.636;2023-02-28T03:36:57;2.20;29.90
2767;DHT22;1391;46.742;11.636;2023-02-28T03:39:34;2.20;29.40
2767;DHT22;1391;46.742;11.636;2023-02-28T03:42:06;2.00;30.00
2767;DHT22;1391;46.742;11.636;2023-02-28T03:44:40;2.20;29.40
2767;DHT22;1391;46.742;11.636;2023-02-28T03:47:13;2.00;29.20
2767;DHT22;1391;46.742;11.636;2023-02-28T03:49:46;2.20;30.00
2767;DHT22;1391;46.742;11.636;2023-02-28T03:52:25;2.20;29.90
2767;DHT22;1391;46.742;11.636;2023-02-28T03:54:58;2.20;29.00
2767;DHT22;1391;46.742;11.636;2023-02-28T03:57:37;2.20;29.50
2767;DHT22;1391;46.742;11.636;2023-02-28T04:00:12;2.00;29.60
2767;DHT22;1391;46.742;11.636;2023-02-28T04:02:44;2.20;29.60
2767;DHT22;1391;46.742;11.636;2023-02-28T04:05:11;2.10;29.70
2767;DHT22;1391;46.742;11.636;2023-02-28T04:07:42;2.00;29.70
2767;DHT22;1391;46.742;11.636;2023-02-28T04:10:13;2.20;30.50
2767;DHT22;1391;46.742;11.636;2023-02-28T04:12:41;2.20;30.30
2767;DHT22;1391;46.742;11.636;2023-02-28T04:15:08;2.10;29.80
2767;DHT22;1391;46.742;11.636;2023-02-28T04:17:37;1.90;29.30
2767;DHT22;1391;46.742;11.636;2023-02-28T04:20:07;2.20;30.30
2767;DHT22;1391;46.742;11.636;2023-02-28T04:22:37;2.10;30.20
2767;DHT22;1391;46.742;11.636;2023-02-28T04:25:07;2.20;31.30
2767;DHT22;1391;46.742;11.636;2023-02-28T04:27:35;2.20;30.20
2767;DHT22;1391;46.742;11.636;2023-02-28T04:30:03;2.20;31.80
2767;DHT22;1391;46.742;11.636;2023-02-28T04:32:31;2.00;30.60
2767;DHT22;1391;46.742;11.636;2023-02-28T04:35:01;2.20;30.00
2767;DHT22;1391;46.742;11.636;2023-02-28T04:37:28;2.20;31.70
2767;DHT22;1391;46.742;11.636;2023-02-28T04:39:55;2.20;31.00
2767;DHT22;1391;46.742;11.636;2023-02-28T04:42:26;2.10;30.10
2767;DHT22;1391;46.742;11.636;2023-02-28T04:45:01;2.10;30.10
2767;DHT22;1391;46.742;11.636;2023-02-28T04:47:29;2.20;30.20
2767;DHT22;1391;46.742;11.636;2023-02-28T04:49:57;2.20;30.30
2767;DHT22;1391;46.742;11.636;2023-02-28T04:52:24;2.10;31.20
2767;DHT22;1391;46.742;11.636;2023-02-28T04:54:51;2.20;30.50
2767;DHT22;1391;46.742;11.636;2023-02-28T04:57:18;1.90;31.10
2767;DHT22;1391;46.742;11.636;2023-02-28T04:59:48;2.00;30.90
2767;DHT22;1391;46.742;11.636;2023-02-28T05:02:18;2.20;30.50
2767;DHT22;1391;46.742;11.636;2023-02-28T05:04:46;1.90;29.80
2767;DHT22;1391;46.742;11.636;2023-02-28T05:07:15;2.10;31.30
2767;DHT22;1391;46.742;11.636;2023-02-28T05:09:45;2.10;31.30
2767;DHT22;1391;46.742;11.636;2023-02-28T05:12:12;2.10;30.50
2767;DHT22;1391;46.742;11.636;2023-02-28T05:14:40;2.20;30.70
2767;DHT22;1391;46.742;11.636;2023-02-28T05:17:09;2.10;31.30
2767;DHT22;1391;46.742;11.636;2023-02-28T05:19:36;2.00;30.00
2767;DHT22;1391;46.742;11.636;2023-02-28T05:22:04;2.00;30.20
2767;DHT22;1391;46.742;11.636;2023-02-28T05:24:32;2.30;30.50
2767;DHT22;1391;46.742;11.636;2023-02-28T05:27:00;2.20;31.10
2767;DHT22;1391;46.742;11.636;2023-02-28T05:29:27;2.10;30.90
2767;DHT22;1391;46.742;11.636;2023-02-28T05:31:54;2.10;30.50
2767;DHT22;1391;46.742;11.636;2023-02-28T05:34:23;2.10;30.30
2767;DHT22;1391;46.742;11.636;2023-02-28T05:36:50;2.10;30.40
2767;DHT22;1391;46.742;11.636;2023-02-28T05:39:17;1.90;29.80
2767;DHT22;1391;46.742;11.636;2023-02-28T05:41:46;2.10;30.00
2767;DHT22;1391;46.742;11.636;2023-02-28T05:44:13;1.90;30.00
2767;DHT22;1391;46.742;11.636;2023-02-28T05:46:42;1.90;29.90
2767;DHT22;1391;46.742;11.636;2023-02-28T05:49:09;2.00;29.50
2767;DHT22;1391;46.742;11.636;2023-02-28T05:51:38;2.20;29.60
2767;DHT22;1391;46.742;11.636;2023-02-28T05:54:07;2.10;29.70
2767;DHT22;1391;46.742;11.636;2023-02-28T05:56:34;2.00;29.20
2767;DHT22;1391;46.742;11.636;2023-02-28T05:59:04;2.20;29.40
2767;DHT22;1391;46.742;11.636;2023-02-28T06:01:34;2.10;28.90
2767;DHT22;1391;46.742;11.636;2023-02-28T06:04:05;2.30;30.50
2767;DHT22;1391;46.742;11.636;2023-02-28T06:06:34;2.20;28.90
2767;DHT22;1391;46.742;11.636;2023-02-28T06:09:09;2.30;29.70
2767;DHT22;1391;46.742;11.636;2023-02-28T06:11:36;2.20;28.90
2767;DHT22;1391;46.742;11.636;2023-02-28T06:14:04;2.30;29.60
2767;DHT22;1391;46.742;11.636;2023-02-28T06:16:34;2.30;29.40
2767;DHT22;1391;46.742;11.636;2023-02-28T06:19:04;2.00;28.80
2767;DHT22;1391;46.742;11.636;2023-02-28T06:21:32;2.30;29.30
2767;DHT22;1391;46.742;11.636;2023-02-28T06:24:02;2.30;29.10
2767;DHT22;1391;46.742;11.636;2023-02-28T06:26:31;2.00;28.50
2767;DHT22;1391;46.742;11.636;2023-02-28T06:29:00;2.20;29.60
2767;DHT22;1391;46.742;11.636;2023-02-28T06:31:28;2.00;29.10
2767;DHT22;1391;46.742;11.636;2023-02-28T06:33:56;2.50;29.00
2767;DHT22;1391;46.742;11.636;2023-02-28T06:36:25;2.50;29.30
2767;DHT22;1391;46.742;11.636;2023-02-28T06:38:53;2.60;29.20
2767;DHT22;1391;46.742;11.636;2023-02-28T06:41:22;2.60;29.00
2767;DHT22;1391;46.742;11.636;2023-02-28T06:43:57;2.20;29.30
2767;DHT22;1391;46.742;11.636;2023-02-28T06:46:25;2.30;28.30
2767;DHT22;1391;46.742;11.636;2023-02-28T06:48:56;2.50;29.20
2767;DHT22;1391;46.742;11.636;2023-02-28T06:51:24;2.30;28.10
2767;DHT22;1391;46.742;11.636;2023-02-28T06:53:53;2.40;27.50
2767;DHT22;1391;46.742;11.636;2023-02-28T06:56:21;2.50;29.10
2767;DHT22;1391;46.742;11.636;2023-02-28T06:58:52;2.20;28.90
2767;DHT22;1391;46.742;11.636;2023-02-28T07:01:19;2.40;28.40
2767;DHT22;1391;46.742;11.636;2023-02-28T07:03:50;2.40;29.40
2767;DHT22;1391;46.742;11.636;2023-02-28T07:06:19;2.50;28.20
2767;DHT22;1391;46.742;11.636;2023-02-28T07:08:49;2.40;30.90
2767;DHT22;1391;46.742;11.636;2023-02-28T07:11:27;3.00;29.00
2767;DHT22;1391;46.742;11.636;2023-02-28T07:13:57;2.60;27.40
2767;DHT22;1391;46.742;11.636;2023-02-28T07:16:25;3.00;27.90
2767;DHT22;1391;46.742;11.636;2023-02-28T07:18:53;2.80;27.10
2767;DHT22;1391;46.742;11.636;2023-02-28T07:21:21;2.80;27.90
2767;DHT22;1391;46.742;11.636;2023-02-28T07:23:53;2.90;28.00
2767;DHT22;1391;46.742;11.636;2023-02-28T07:26:20;2.80;27.40
2767;DHT22;1391;46.742;11.636;2023-02-28T07:28:49;2.80;27.80
2767;DHT22;1391;46.742;11.636;2023-02-28T07:31:18;2.90;27.60
2767;DHT22;1391;46.742;11.636;2023-02-28T07:33:46;2.80;28.20
2767;DHT22;1391;46.742;11.636;2023-02-28T07:36:16;3.40;28.30
2767;DHT22;1391;46.742;11.636;2023-02-28T07:38:46;3.40;27.30
2767;DHT22;1391;46.742;11.636;2023-02-28T07:41:15;3.20;27.60
2767;DHT22;1391;46.742;11.636;2023-02-28T07:43:43;3.10;27.80
2767;DHT22;1391;46.742;11.636;2023-02-28T07:46:12;3.30;27.60
2767;DHT22;1391;46.742;11.636;2023-02-28T07:48:43;3.20;26.40
2767;DHT22;1391;46.742;11.636;2023-02-28T07:51:11;3.40;26.90
2767;DHT22;1391;46.742;11.636;2023-02-28T07:53:38;3.30;26.60
2767;DHT22;1391;46.742;11.636;2023-02-28T07:56:06;3.20;27.80
2767;DHT22;1391;46.742;11.636;2023-02-28T07:58:34;3.10;26.90
2767;DHT22;1391;46.742;11.636;2023-02-28T08:01:05;3.40;27.50
2767;DHT22;1391;46.742;11.636;2023-02-28T08:03:33;3.70;28.20
2767;DHT22;1391;46.742;11.636;2023-02-28T08:06:03;3.20;26.60
2767;DHT22;1391;46.742;11.636;2023-02-28T08:08:30;3.20;27.60
2767;DHT22;1391;46.742;11.636;2023-02-28T08:10:58;3.20;28.10
2767;DHT22;1391;46.742;11.636;2023-02-28T08:13:27;3.20;27.80
2767;DHT22;1391;46.742;11.636;2023-02-28T08:15:55;3.50;27.50
2767;DHT22;1391;46.742;11.636;2023-02-28T08:18:23;3.50;27.20
2767;DHT22;1391;46.742;11.636;2023-02-28T08:20:50;3.40;26.40
2767;DHT22;1391;46.742;11.636;2023-02-28T08:23:19;3.40;26.60
2767;DHT22;1391;46.742;11.636;2023-02-28T08:25:53;3.80;26.90
2767;DHT22;1391;46.742;11.636;2023-02-28T08:28:22;3.60;25.80
2767;DHT22;1391;46.742;11.636;2023-02-28T08:30:50;4.30;27.80
2767;DHT22;1391;46.742;11.636;2023-02-28T08:33:18;4.90;26.10
2767;DHT22;1391;46.742;11.636;2023-02-28T08:35:46;4.90;24.60
2767;DHT22;1391;46.742;11.636;2023-02-28T08:38:14;5.00;24.70
2767;DHT22;1391;46.742;11.636;2023-02-28T08:40:42;5.00;24.40
2767;DHT22;1391;46.742;11.636;2023-02-28T08:43:11;5.40;24.50
2767;DHT22;1391;46.742;11.636;2023-02-28T08:45:38;5.00;23.30
2767;DHT22;1391;46.742;11.636;2023-02-28T08:48:06;5.10;24.50
2767;DHT22;1391;46.742;11.636;2023-02-28T08:50:33;5.10;24.20
2767;DHT22;1391;46.742;11.636;2023-02-28T08:53:00;5.30;25.40
2767;DHT22;1391;46.742;11.636;2023-02-28T08:55:27;5.40;22.60
2767;DHT22;1391;46.742;11.636;2023-02-28T08:57:56;5.40;24.00
2767;DHT22;1391;46.742;11.636;2023-02-28T09:00:24;5.30;23.80
2767;DHT22;1391;46.742;11.636;2023-02-28T09:02:51;5.00;22.80
2767;DHT22;1391;46.742;11.636;2023-02-28T09:05:18;5.20;23.90
2767;DHT22;1391;46.742;11.636;2023-02-28T09:07:45;5.30;23.10
2767;DHT22;1391;46.742;11.636;2023-02-28T09:10:13;5.30;23.20
2767;DHT22;1391;46.742;11.636;2023-02-28T09:12:40;5.30;25.00
2767;DHT22;1391;46.742;11.636;2023-02-28T09:15:10;6.10;24.10
2767;DHT22;1391;46.742;11.636;2023-02-28T09:17:37;6.00;24.80
2767;DHT22;1391;46.742;11.636;2023-02-28T09:20:05;5.90;22.30
2767;DHT22;1391;46.742;11.636;2023-02-28T09:22:34;6.10;22.90
2767;DHT22;1391;46.742;11.636;2023-02-28T09:25:01;5.80;24.00
2767;DHT22;1391;46.742;11.636;2023-02-28T09:27:28;5.90;20.90
2767;DHT22;1391;46.742;11.636;2023-02-28T09:29:55;6.50;22.50
2767;DHT22;1391;46.742;11.636;2023-02-28T09:32:24;5.80;21.70
2767;DHT22;1391;46.742;11.636;2023-02-28T09:34:51;6.50;21.10
2767;DHT22;1391;46.742;11.636;2023-02-28T09:37:18;6.60;22.60
2767;DHT22;1391;46.742;11.636;2023-02-28T09:39:46;6.30;20.90
2767;DHT22;1391;46.742;11.636;2023-02-28T09:42:21;6.80;19.90
2767;DHT22;1391;46.742;11.636;2023-02-28T09:44:50;6.80;20.50
2767;DHT22;1391;46.742;11.636;2023-02-28T09:47:27;6.80;20.10
2767;DHT22;1391;46.742;11.636;2023-02-28T09:50:00;7.00;20.40
2767;DHT22;1391;46.742;11.636;2023-02-28T09:52:33;7.10;19.80
2767;DHT22;1391;46.742;11.636;2023-02-28T09:55:04;7.00;19.40
2767;DHT22;1391;46.742;11.636;2023-02-28T09:57:46;6.90;18.80
2767;DHT22;1391;46.742;11.636;2023-02-28T10:00:17;7.10;19.80
2767;DHT22;1391;46.742;11.636;2023-02-28T10:02:58;7.00;19.60
2767;DHT22;1391;46.742;11.636;2023-02-28T10:05:34;7.80;19.50
2767;DHT22;1391;46.742;11.636;2023-02-28T10:08:10;7.90;18.90
2767;DHT22;1391;46.742;11.636;2023-02-28T10:10:41;7.80;18.40
2767;DHT22;1391;46.742;11.636;2023-02-28T10:13:18;7.90;18.10
2767;DHT22;1391;46.742;11.636;2023-02-28T10:15:52;8.20;19.20
2767;DHT22;1391;46.742;11.636;2023-02-28T10:18:27;8.90;17.30
2767;DHT22;1391;46.742;11.636;2023-02-28T10:20:57;8.90;15.80
2767;DHT22;1391;46.742;11.636;2023-02-28T10:23:28;9.50;14.60
2767;DHT22;1391;46.742;11.636;2023-02-28T10:26:00;8.80;16.20
2767;DHT22;1391;46.742;11.636;2023-02-28T10:28:31;8.20;16.70
2767;DHT22;1391;46.742;11.636;2023-02-28T10:30:59;8.70;16.10
2767;DHT22;1391;46.742;11.636;2023-02-28T10:33:31;8.60;19.00
2767;DHT22;1391;46.742;11.636;2023-02-28T10:36:02;8.20;17.20
2767;DHT22;1391;46.742;11.636;2023-02-28T10:38:34;8.40;16.90
2767;DHT22;1391;46.742;11.636;2023-02-28T10:41:07;8.70;17.30
2767;DHT22;1391;46.742;11.636;2023-02-28T10:43:36;8.60;17.60
2767;DHT22;1391;46.742;11.636;2023-02-28T10:46:11;8.70;18.30
2767;DHT22;1391;46.742;11.636;2023-02-28T10:48:44;8.70;16.50
2767;DHT22;1391;46.742;11.636;2023-02-28T10:51:15;9.40;17.50
2767;DHT22;1391;46.742;11.636;2023-02-28T10:53:49;9.40;18.10
2767;DHT22;1391;46.742;11.636;2023-02-28T10:56:19;9.60;16.90
2767;DHT22;1391;46.742;11.636;2023-02-28T10:58:56;9.90;15.70
2767;DHT22;1391;46.742;11.636;2023-02-28T11:01:33;9.90;16.30
2767;DHT22;1391;46.742;11.636;2023-02-28T11:04:16;9.50;15.00
2767;DHT22;1391;46.742;11.636;2023-02-28T11:06:45;9.30;16.70
2767;DHT22;1391;46.742;11.636;2023-02-28T11:09:25;9.40;18.60
2767;DHT22;1391;46.742;11.636;2023-02-28T11:11:55;9.10;19.00
2767;DHT22;1391;46.742;11.636;2023-02-28T11:14:26;9.50;18.80
2767;DHT22;1391;46.742;11.636;2023-02-28T11:16:56;9.90;17.10
2767;DHT22;1391;46.742;11.636;2023-02-28T11:19:28;9.60;17.10
2767;DHT22;1391;46.742;11.636;2023-02-28T11:22:02;9.80;17.60
2767;DHT22;1391;46.742;11.636;2023-02-28T11:24:34;10.00;16.90
2767;DHT22;1391;46.742;11.636;2023-02-28T11:27:03;10.30;15.30
2767;DHT22;1391;46.742;11.636;2023-02-28T11:29:32;9.90;14.60
2767;DHT22;1391;46.742;11.636;2023-02-28T11:32:09;9.80;15.60
2767;DHT22;1391;46.742;11.636;2023-02-28T11:34:41;9.90;16.70
2767;DHT22;1391;46.742;11.636;2023-02-28T11:37:13;9.60;16.50
2767;DHT22;1391;46.742;11.636;2023-02-28T11:39:43;10.00;13.60
2767;DHT22;1391;46.742;11.636;2023-02-28T11:45:44;9.70;16.80
2767;DHT22;1391;46.742;11.636;2023-02-28T11:48:21;9.90;16.20
2767;DHT22;1391;46.742;11.636;2023-02-28T11:51:05;9.90;15.10
2767;DHT22;1391;46.742;11.636;2023-02-28T11:53:59;10.50;14.80
2767;DHT22;1391;46.742;11.636;2023-02-28T11:56:38;10.50;15.70
2767;DHT22;1391;46.742;11.636;2023-02-28T11:59:36;10.40;15.30
2767;DHT22;1391;46.742;11.636;2023-02-28T12:02:23;10.60;15.20
2767;DHT22;1391;46.742;11.636;2023-02-28T12:07:59;10.40;13.80
2767;DHT22;1391;46.742;11.636;2023-02-28T12:10:35;10.60;14.30
2767;DHT22;1391;46.742;11.636;2023-02-28T12:13:15;11.10;15.80
2767;DHT22;1391;46.742;11.636;2023-02-28T12:15:57;10.70;17.80
2767;DHT22;1391;46.742;11.636;2023-02-28T12:19:01;10.80;14.30
2767;DHT22;1391;46.742;11.636;2023-02-28T12:21:44;10.60;13.80
2767;DHT22;1391;46.742;11.636;2023-02-28T12:24:49;10.90;15.20
2767;DHT22;1391;46.742;11.636;2023-02-28T12:27:45;10.80;14.70
2767;DHT22;1391;46.742;11.636;2023-02-28T12:30:16;10.40;12.50
2767;DHT22;1391;46.742;11.636;2023-02-28T12:32:47;10.70;14.20
2767;DHT22;1391;46.742;11.636;2023-02-28T12:35:22;10.70;13.90
2767;DHT22;1391;46.742;11.636;2023-02-28T12:37:55;10.90;13.80
2767;DHT22;1391;46.742;11.636;2023-02-28T12:40:32;10.90;14.00
2767;DHT22;1391;46.742;11.636;2023-02-28T12:43:10;11.40;12.90
2767;DHT22;1391;46.742;11.636;2023-02-28T12:45:43;10.80;12.80
2767;DHT22;1391;46.742;11.636;2023-02-28T12:48:17;10.90;12.50
2767;DHT22;1391;46.742;11.636;2023-02-28T12:50:48;10.90;13.70
2767;DHT22;1391;46.742;11.636;2023-02-28T12:53:21;10.70;13.80
2767;DHT22;1391;46.742;11.636;2023-02-28T12:55:59;11.40;12.60
2767;DHT22;1391;46.742;11.636;2023-02-28T12:58:37;11.40;12.70
2767;DHT22;1391;46.742;11.636;2023-02-28T13:01:36;10.90;12.80
2767;DHT22;1391;46.742;11.636;2023-02-28T13:07:49;11.20;14.40
2767;DHT22;1391;46.742;11.636;2023-02-28T13:10:38;11.20;12.50
2767;DHT22;1391;46.742;11.636;2023-02-28T13:13:17;11.70;12.40
2767;DHT22;1391;46.742;11.636;2023-02-28T13:16:02;11.20;12.20
2767;DHT22;1391;46.742;11.636;2023-02-28T13:18:34;11.40;11.80
2767;DHT22;1391;46.742;11.636;2023-02-28T13:21:04;11.50;13.00
2767;DHT22;1391;46.742;11.636;2023-02-28T13:23:58;11.50;13.20
2767;DHT22;1391;46.742;11.636;2023-02-28T13:29:54;11.50;12.50
2767;DHT22;1391;46.742;11.636;2023-02-28T13:32:42;11.20;14.30
2767;DHT22;1391;46.742;11.636;2023-02-28T13:35:15;11.20;12.00
2767;DHT22;1391;46.742;11.636;2023-02-28T13:38:33;10.80;11.40
2767;DHT22;1391;46.742;11.636;2023-02-28T13:44:22;11.20;12.90
2767;DHT22;1391;46.742;11.636;2023-02-28T13:50:19;11.40;13.00
2767;DHT22;1391;46.742;11.636;2023-02-28T13:52:55;10.80;12.00
2767;DHT22;1391;46.742;11.636;2023-02-28T13:55:45;10.80;13.20
2767;DHT22;1391;46.742;11.636;2023-02-28T13:58:33;10.90;13.70
2767;DHT22;1391;46.742;11.636;2023-02-28T14:01:17;10.70;13.00
2767;DHT22;1391;46.742;11.636;2023-02-28T14:04:24;10.80;11.00
2767;DHT22;1391;46.742;11.636;2023-02-28T14:07:04;10.70;11.00
2767;DHT22;1391;46.742;11.636;2023-02-28T14:09:34;11.20;14.40
2767;DHT22;1391;46.742;11.636;2023-02-28T14:15:30;11.40;15.10
2767;DHT22;1391;46.742;11.636;2023-02-28T14:18:15;10.90;13.00
2767;DHT22;1391;46.742;11.636;2023-02-28T14:20:47;10.70;13.10
2767;DHT22;1391;46.742;11.636;2023-02-28T14:23:25;10.80;14.30
2767;DHT22;1391;46.742;11.636;2023-02-28T14:26:02;10.70;12.70
2767;DHT22;1391;46.742;11.636;2023-02-28T14:28:44;10.90;14.00
2767;DHT22;1391;46.742;11.636;2023-02-28T14:31:22;10.90;14.00
2767;DHT22;1391;46.742;11.636;2023-02-28T14:34:17;10.80;13.20
2767;DHT22;1391;46.742;11.636;2023-02-28T14:36:54;10.40;13.20
2767;DHT22;1391;46.742;11.636;2023-02-28T14:39:26;10.50;13.70
2767;DHT22;1391;46.742;11.636;2023-02-28T14:41:57;10.30;13.80
2767;DHT22;1391;46.742;11.636;2023-02-28T14:44:29;9.90;14.60
2767;DHT22;1391;46.742;11.636;2023-02-28T14:46:59;9.90;14.40
2767;DHT22;1391;46.742;11.636;2023-02-28T14:49:31;9.70;14.60
2767;DHT22;1391;46.742;11.636;2023-02-28T14:52:15;10.10;12.50
2767;DHT22;1391;46.742;11.636;2023-02-28T14:54:46;9.90;14.70
2767;DHT22;1391;46.742;11.636;2023-02-28T14:57:23;9.90;14.40
2767;DHT22;1391;46.742;11.636;2023-02-28T14:59:59;9.70;15.50
2767;DHT22;1391;46.742;11.636;2023-02-28T15:02:31;9.50;16.80
2767;DHT22;1391;46.742;11.636;2023-02-28T15:05:10;9.20;16.30
2767;DHT22;1391;46.742;11.636;2023-02-28T15:08:03;9.30;16.00
2767;DHT22;1391;46.742;11.636;2023-02-28T15:10:33;9.50;16.50
2767;DHT22;1391;46.742;11.636;2023-02-28T15:13:02;9.40;17.70
2767;DHT22;1391;46.742;11.636;2023-02-28T15:15:43;8.80;16.50
2767;DHT22;1391;46.742;11.636;2023-02-28T15:18:20;9.10;17.20
2767;DHT22;1391;46.742;11.636;2023-02-28T15:20:53;9.30;16.60
2767;DHT22;1391;46.742;11.636;2023-02-28T15:23:26;9.40;17.40
2767;DHT22;1391;46.742;11.636;2023-02-28T15:25:54;9.00;18.00
2767;DHT22;1391;46.742;11.636;2023-02-28T15:28:23;8.60;17.70
2767;DHT22;1391;46.742;11.636;2023-02-28T15:30:53;8.60;18.10
2767;DHT22;1391;46.742;11.636;2023-02-28T15:33:27;9.00;17.80
2767;DHT22;1391;46.742;11.636;2023-02-28T15:36:06;8.60;17.90
2767;DHT22;1391;46.742;11.636;2023-02-28T15:38:41;8.60;18.40
2767;DHT22;1391;46.742;11.636;2023-02-28T15:41:24;8.60;18.80
2767;DHT22;1391;46.742;11.636;2023-02-28T15:47:02;8.20;18.80
2767;DHT22;1391;46.742;11.636;2023-02-28T15:49:39;8.20;19.30
2767;DHT22;1391;46.742;11.636;2023-02-28T15:52:13;8.40;19.40
2767;DHT22;1391;46.742;11.636;2023-02-28T15:54:45;8.40;19.70
2767;DHT22;1391;46.742;11.636;2023-02-28T15:57:17;8.30;19.00
2767;DHT22;1391;46.742;11.636;2023-02-28T15:59:51;8.10;19.10
2767;DHT22;1391;46.742;11.636;2023-02-28T16:02:20;8.20;20.50
2767;DHT22;1391;46.742;11.636;2023-02-28T16:05:16;7.70;20.40
2767;DHT22;1391;46.742;11.636;2023-02-28T16:07:47;7.90;20.70
2767;DHT22;1391;46.742;11.636;2023-02-28T16:10:16;8.30;20.10
2767;DHT22;1391;46.742;11.636;2023-02-28T16:12:43;8.20;19.50
2767;DHT22;1391;46.742;11.636;2023-02-28T16:15:18;8.30;19.80
2767;DHT22;1391;46.742;11.636;2023-02-28T16:17:47;7.80;19.70
2767;DHT22;1391;46.742;11.636;2023-02-28T16:20:17;7.80;20.20
2767;DHT22;1391;46.742;11.636;2023-02-28T16:22:45;7.60;19.70
2767;DHT22;1391;46.742;11.636;2023-02-28T16:25:14;7.70;19.90
2767;DHT22;1391;46.742;11.636;2023-02-28T16:27:46;7.90;20.50
2767;DHT22;1391;46.742;11.636;2023-02-28T16:30:18;7.70;20.70
2767;DHT22;1391;46.742;11.636;2023-02-28T16:32:47;7.80;20.60
2767;DHT22;1391;46.742;11.636;2023-02-28T16:35:14;7.70;20.60
2767;DHT22;1391;46.742;11.636;2023-02-28T16:37:43;7.70;20.90
2767;DHT22;1391;46.742;11.636;2023-02-28T16:40:17;7.70;19.50
2767;DHT22;1391;46.742;11.636;2023-02-28T16:42:47;7.70;20.90
2767;DHT22;1391;46.742;11.636;2023-02-28T16:45:18;7.20;19.80
2767;DHT22;1391;46.742;11.636;2023-02-28T16:47:47;7.30;21.90
2767;DHT22;1391;46.742;11.636;2023-02-28T16:50:16;7.30;22.00
2767;DHT22;1391;46.742;11.636;2023-02-28T16:52:44;7.50;20.60
2767;DHT22;1391;46.742;11.636;2023-02-28T16:55:12;7.20;23.00
2767;DHT22;1391;46.742;11.636;2023-02-28T16:57:41;7.90;20.80
2767;DHT22;1391;46.742;11.636;2023-02-28T17:00:13;8.10;20.00
2767;DHT22;1391;46.742;11.636;2023-02-28T17:02:41;8.10;21.10
2767;DHT22;1391;46.742;11.636;2023-02-28T17:05:10;8.30;20.20
2767;DHT22;1391;46.742;11.636;2023-02-28T17:07:38;7.80;20.00
2767;DHT22;1391;46.742;11.636;2023-02-28T17:10:13;8.40;20.50